Time;durP1;ratioP1;P1;durP2;ratioP2;P2;SDS_P1;SDS_P2;PMS_P1;PMS_P2;Temp;Humidity;BMP_temperature;BMP_pressure;BME280_temperature;BME280_humidity;BME280_pressure;Samples;Min_cycle;Max_cycle;Signal;HPM_P1;HPM_P2
2021/03/19 00:01:33;;;;;;;;;;;4.00;99.90;;;;;;4944364;28;19918;-75
2021/03/19 00:03:59;;;;;;;;;;;3.90;99.90;;;;;;4968708;28;19921;-75
2021/03/19 00:06:27;;;;;;;;;;;3.90;99.90;;;;;;4952394;28;19928;-75
2021/03/19 00:08:52;;;;;;;;;;;3.90;99.90;;;;;;4970417;28;19945;-75
2021/03/19 00:11:18;;;;;;;;;;;3.90;99.90;;;;;;4973269;28;20489;-75
2021/03/19 00:13:44;;;;;;;;;;;3.90;99.90;;;;;;4972446;28;19918;-75
2021/03/19 00:16:09;;;;;;;;;;;3.90;99.90;;;;;;4952873;28;19918;-75
2021/03/19 00:18:35;;;;;;;;;;;3.80;99.90;;;;;;4973394;28;19925;-75
2021/03/19 00:21:01;;;;;;;;;;;3.80;99.90;;;;;;4972916;28;19914;-75
2021/03/19 00:23:26;;;;;;;;;;;3.80;99.90;;;;;;4973383;28;19937;-75
2021/03/19 00:25:52;;;;;;;;;;;3.70;99.90;;;;;;4933151;28;19921;-75
2021/03/19 00:28:19;;;;;;;;;;;3.70;99.90;;;;;;4962181;28;19914;-75
2021/03/19 00:30:48;;;;;;;;;;;3.70;99.90;;;;;;4960599;28;19925;-75
2021/03/19 00:33:15;;;;;;;;;;;3.60;99.90;;;;;;4943317;28;19918;-75
2021/03/19 00:35:41;;;;;;;;;;;3.60;99.90;;;;;;4960442;28;20005;-75
2021/03/19 00:38:09;;;;;;;;;;;3.60;99.90;;;;;;4960955;28;20001;-75
2021/03/19 00:40:35;;;;;;;;;;;3.60;99.90;;;;;;4939581;28;19921;-75
2021/03/19 00:43:01;;;;;;;;;;;3.60;99.90;;;;;;4954155;28;19973;-75
2021/03/19 00:45:26;;;;;;;;;;;3.60;99.90;;;;;;4952283;28;20263;-75
2021/03/19 00:47:52;;;;;;;;;;;3.60;99.90;;;;;;4972543;28;19913;-75
2021/03/19 00:50:22;;;;;;;;;;;3.50;99.90;;;;;;4955292;28;19910;-75
2021/03/19 00:52:48;;;;;;;;;;;3.60;99.90;;;;;;4971604;28;19937;-75
2021/03/19 00:55:13;;;;;;;;;;;3.60;99.90;;;;;;4946921;28;19922;-75
2021/03/19 00:57:39;;;;;;;;;;;3.50;99.90;;;;;;4961837;28;20028;-75
2021/03/19 01:00:08;;;;;;;;;;;3.50;99.90;;;;;;4947197;28;19918;-75
2021/03/19 01:02:33;;;;;;;;;;;3.50;99.90;;;;;;4942668;28;19910;-75
2021/03/19 01:04:59;;;;;;;;;;;3.50;99.90;;;;;;4937409;28;20374;-75
2021/03/19 01:07:27;;;;;;;;;;;3.50;99.90;;;;;;4972718;28;19993;-75
2021/03/19 01:09:52;;;;;;;;;;;3.40;99.90;;;;;;4971433;28;19910;-75
2021/03/19 01:12:20;;;;;;;;;;;3.30;99.90;;;;;;4972223;28;19972;-75
2021/03/19 01:14:46;;;;;;;;;;;3.20;99.90;;;;;;4970709;28;19949;-75
2021/03/19 01:17:11;;;;;;;;;;;3.20;99.90;;;;;;4960161;28;20442;-75
2021/03/19 01:19:40;;;;;;;;;;;3.10;99.90;;;;;;4944369;28;19945;-75
2021/03/19 01:22:06;;;;;;;;;;;3.10;99.90;;;;;;4969003;28;19918;-75
2021/03/19 01:24:34;;;;;;;;;;;3.00;99.90;;;;;;4951034;28;19925;-75
2021/03/19 01:26:59;;;;;;;;;;;3.00;99.90;;;;;;4972430;28;19910;-75
2021/03/19 01:29:25;;;;;;;;;;;3.00;99.90;;;;;;4972357;28;20486;-75
2021/03/19 01:31:50;;;;;;;;;;;3.00;99.90;;;;;;4954901;28;20017;-75
2021/03/19 01:34:16;;;;;;;;;;;3.00;99.90;;;;;;4967173;28;19929;-74
2021/03/19 01:36:41;;;;;;;;;;;3.00;99.90;;;;;;4959977;28;19918;-75
2021/03/19 01:39:07;;;;;;;;;;;2.90;99.90;;;;;;4961015;28;19926;-75
2021/03/19 01:41:32;;;;;;;;;;;3.00;99.90;;;;;;4959819;28;19918;-75
2021/03/19 01:44:02;;;;;;;;;;;3.00;99.90;;;;;;4940059;28;20347;-75
2021/03/19 01:46:47;;;;;;;;;;;2.90;99.90;;;;;;4946469;28;19965;-75
2021/03/19 01:49:33;;;;;;;;;;;2.90;99.90;;;;;;4970626;28;19969;-75
2021/03/19 01:52:18;;;;;;;;;;;2.80;99.90;;;;;;4970966;28;19925;-75
2021/03/19 01:55:05;;;;;;;;;;;2.80;99.90;;;;;;4971146;28;19949;-75
2021/03/19 01:57:49;;;;;;;;;;;2.80;99.90;;;;;;4968296;28;19921;-75
2021/03/19 02:00:34;;;;;;;;;;;2.80;99.90;;;;;;4942483;28;19914;-75
2021/03/19 02:03:18;;;;;;;;;;;2.70;99.90;;;;;;4951913;28;19914;-75
2021/03/19 02:06:02;;;;;;;;;;;2.60;99.90;;;;;;4957976;28;19925;-75
2021/03/19 02:08:46;;;;;;;;;;;2.60;99.90;;;;;;4959781;28;20434;-75
2021/03/19 02:11:30;;;;;;;;;;;2.70;99.90;;;;;;4959439;28;19961;-75
2021/03/19 02:14:17;;;;;;;;;;;2.70;99.90;;;;;;4959781;28;19914;-75
2021/03/19 02:17:01;;;;;;;;;;;2.60;99.90;;;;;;4959401;28;20511;-75
2021/03/19 02:19:45;;;;;;;;;;;2.60;99.90;;;;;;4958208;28;19925;-75
2021/03/19 02:22:29;;;;;;;;;;;2.60;99.90;;;;;;4957553;28;19918;-75
2021/03/19 02:25:14;;;;;;;;;;;2.50;99.90;;;;;;4948812;28;19930;-75
2021/03/19 02:27:58;;;;;;;;;;;2.50;99.90;;;;;;4969921;28;19991;-75
2021/03/19 02:30:42;;;;;;;;;;;2.60;99.90;;;;;;4962649;28;19921;-75
2021/03/19 02:33:08;;;;;;;;;;;2.50;99.90;;;;;;4949823;28;19918;-75
2021/03/19 02:35:33;;;;;;;;;;;2.50;99.90;;;;;;4946763;28;19909;-75
2021/03/19 02:37:59;;;;;;;;;;;2.50;99.90;;;;;;4940536;28;20363;-75
2021/03/19 02:40:27;;;;;;;;;;;2.50;99.90;;;;;;4958940;28;20367;-75
2021/03/19 02:42:52;;;;;;;;;;;2.50;99.90;;;;;;4953624;28;19910;-75
2021/03/19 02:45:19;;;;;;;;;;;2.60;99.90;;;;;;4966902;28;19936;-75
2021/03/19 02:47:44;;;;;;;;;;;2.50;99.90;;;;;;4947795;28;19909;-75
2021/03/19 02:50:10;;;;;;;;;;;2.40;99.90;;;;;;4969790;28;19929;-75
2021/03/19 02:52:37;;;;;;;;;;;2.40;99.90;;;;;;4953221;28;19914;-75
2021/03/19 02:55:03;;;;;;;;;;;2.40;99.90;;;;;;4970835;28;19929;-75
2021/03/19 02:57:29;;;;;;;;;;;2.40;99.90;;;;;;4969943;28;19929;-75
2021/03/19 02:59:54;;;;;;;;;;;2.40;99.90;;;;;;4963184;28;19915;-75
2021/03/19 03:02:20;;;;;;;;;;;2.40;99.90;;;;;;4959477;28;19929;-75
2021/03/19 03:04:45;;;;;;;;;;;2.40;99.90;;;;;;4956838;28;19977;-75
2021/03/19 03:07:21;;;;;;;;;;;2.40;99.90;;;;;;4940599;28;19997;-74
2021/03/19 03:09:49;;;;;;;;;;;2.40;99.90;;;;;;4958434;28;19914;-75
2021/03/19 03:12:14;;;;;;;;;;;2.40;99.90;;;;;;4944073;28;19972;-75
2021/03/19 03:14:40;;;;;;;;;;;2.40;99.90;;;;;;4958172;28;20315;-75
2021/03/19 03:17:05;;;;;;;;;;;2.40;99.90;;;;;;4958707;28;20320;-75
2021/03/19 03:19:31;;;;;;;;;;;2.40;99.90;;;;;;4937757;28;19977;-75
2021/03/19 03:21:59;;;;;;;;;;;2.40;99.90;;;;;;4952290;28;19918;-75
2021/03/19 03:24:25;;;;;;;;;;;2.40;99.90;;;;;;4966157;28;19919;-75
2021/03/19 03:26:51;;;;;;;;;;;2.40;99.90;;;;;;4959174;28;20407;-75
2021/03/19 03:29:16;;;;;;;;;;;2.40;99.90;;;;;;4939766;28;19940;-75
2021/03/19 03:31:42;;;;;;;;;;;2.40;99.90;;;;;;4950537;28;20011;-75
2021/03/19 03:34:08;;;;;;;;;;;2.40;99.90;;;;;;4968958;28;20264;-75
2021/03/19 03:36:34;;;;;;;;;;;2.30;99.90;;;;;;4923368;28;19914;-75
2021/03/19 03:39:00;;;;;;;;;;;2.30;99.90;;;;;;4936056;28;19925;-75
2021/03/19 03:41:26;;;;;;;;;;;2.30;99.90;;;;;;4940675;28;19973;-75
2021/03/19 03:43:54;;;;;;;;;;;2.30;99.90;;;;;;4957546;28;19925;-74
2021/03/19 03:46:26;;;;;;;;;;;2.30;99.90;;;;;;4968030;28;19931;-75
2021/03/19 03:48:51;;;;;;;;;;;2.30;99.90;;;;;;4969222;28;19909;-75
2021/03/19 03:51:19;;;;;;;;;;;2.30;99.90;;;;;;4951354;28;19921;-75
2021/03/19 03:53:45;;;;;;;;;;;2.20;99.90;;;;;;4951660;28;19941;-75
2021/03/19 03:56:11;;;;;;;;;;;2.20;99.90;;;;;;4969560;28;19910;-75
2021/03/19 03:58:37;;;;;;;;;;;2.20;99.90;;;;;;4943296;28;19989;-73
2021/03/19 04:01:02;;;;;;;;;;;2.10;99.90;;;;;;4957144;28;20743;-74
2021/03/19 04:03:28;;;;;;;;;;;2.10;99.90;;;;;;4957702;28;19921;-73
2021/03/19 04:05:58;;;;;;;;;;;2.00;99.90;;;;;;4955110;28;19957;-73
2021/03/19 04:08:29;;;;;;;;;;;2.00;99.90;;;;;;4957889;28;20009;-73
2021/03/19 04:10:57;;;;;;;;;;;2.00;99.90;;;;;;4957375;28;19969;-74
2021/03/19 04:13:24;;;;;;;;;;;1.80;99.90;;;;;;4936066;28;20001;-73
2021/03/19 04:15:55;;;;;;;;;;;1.90;99.90;;;;;;4957056;28;19918;-73
2021/03/19 04:18:22;;;;;;;;;;;1.80;99.90;;;;;;4957515;28;19929;-73
2021/03/19 04:20:51;;;;;;;;;;;1.80;99.90;;;;;;4940488;28;19922;-73
2021/03/19 04:23:16;;;;;;;;;;;1.90;99.90;;;;;;4958189;28;19914;-73
2021/03/19 04:25:42;;;;;;;;;;;1.90;99.90;;;;;;4966282;28;20514;-73
2021/03/19 04:28:09;;;;;;;;;;;1.90;99.90;;;;;;4949443;28;19910;-73
2021/03/19 04:30:38;;;;;;;;;;;1.90;99.90;;;;;;4937511;28;19925;-73
2021/03/19 04:33:06;;;;;;;;;;;1.80;99.90;;;;;;4957020;28;19929;-73
2021/03/19 04:35:34;;;;;;;;;;;1.80;99.90;;;;;;4957790;28;19914;-74
2021/03/19 04:38:02;;;;;;;;;;;1.80;99.90;;;;;;4939317;28;19914;-73
2021/03/19 04:40:28;;;;;;;;;;;1.80;99.90;;;;;;4936519;28;19918;-74
2021/03/19 04:42:54;;;;;;;;;;;1.80;99.90;;;;;;4958299;28;19918;-73
2021/03/19 04:45:19;;;;;;;;;;;1.80;99.90;;;;;;4936548;28;19922;-74
2021/03/19 04:47:46;;;;;;;;;;;1.70;99.90;;;;;;4957534;28;19917;-74
2021/03/19 04:50:12;;;;;;;;;;;1.70;99.90;;;;;;4964085;28;20371;-74
2021/03/19 04:52:37;;;;;;;;;;;1.70;99.90;;;;;;4950193;28;19918;-73
2021/03/19 04:55:03;;;;;;;;;;;1.70;99.90;;;;;;4944326;28;19925;-73
2021/03/19 04:57:29;;;;;;;;;;;1.70;99.90;;;;;;4960520;28;19914;-73
2021/03/19 04:59:55;;;;;;;;;;;1.70;99.90;;;;;;4943533;28;19918;-73
2021/03/19 05:02:39;;;;;;;;;;;1.70;99.90;;;;;;4960549;28;19914;-73
2021/03/19 05:05:05;;;;;;;;;;;1.70;99.90;;;;;;4968337;28;20021;-73
2021/03/19 05:07:31;;;;;;;;;;;1.70;99.90;;;;;;4971847;28;20133;-73
2021/03/19 05:09:59;;;;;;;;;;;1.70;99.90;;;;;;4971922;28;20464;-73
2021/03/19 05:12:26;;;;;;;;;;;1.70;99.90;;;;;;4971417;28;19925;-73
2021/03/19 05:14:52;;;;;;;;;;;1.70;99.90;;;;;;4954680;28;20016;-74
2021/03/19 05:17:17;;;;;;;;;;;1.70;99.90;;;;;;4966060;28;19998;-73
2021/03/19 05:19:45;;;;;;;;;;;1.70;99.90;;;;;;4961873;28;20013;-73
2021/03/19 05:22:11;;;;;;;;;;;1.60;99.90;;;;;;4961037;28;19924;-73
2021/03/19 05:24:37;;;;;;;;;;;1.60;99.90;;;;;;4961274;28;19917;-73
2021/03/19 05:27:04;;;;;;;;;;;1.60;99.90;;;;;;4959993;28;19914;-73
2021/03/19 05:29:30;;;;;;;;;;;1.60;99.90;;;;;;4942373;28;19918;-74
2021/03/19 05:31:56;;;;;;;;;;;1.60;99.90;;;;;;4959548;28;19918;-73
2021/03/19 05:34:21;;;;;;;;;;;1.60;99.90;;;;;;4938768;28;19914;-73
2021/03/19 05:36:47;;;;;;;;;;;1.60;99.90;;;;;;4942288;28;19929;-73
2021/03/19 05:39:12;;;;;;;;;;;1.60;99.90;;;;;;4961561;28;19934;-73
2021/03/19 05:41:39;;;;;;;;;;;1.50;99.90;;;;;;4972575;28;19929;-73
2021/03/19 05:44:10;;;;;;;;;;;1.50;99.90;;;;;;4971047;28;19921;-73
2021/03/19 05:46:37;;;;;;;;;;;1.50;99.90;;;;;;4965550;28;19918;-73
2021/03/19 05:49:07;;;;;;;;;;;1.50;99.90;;;;;;4938609;28;21791;-73
2021/03/19 05:51:40;;;;;;;;;;;1.50;99.90;;;;;;4942271;28;19961;-73
2021/03/19 05:54:09;;;;;;;;;;;1.40;99.90;;;;;;4942197;28;19929;-73
2021/03/19 05:56:37;;;;;;;;;;;1.50;99.90;;;;;;4958925;28;20265;-73
2021/03/19 05:59:05;;;;;;;;;;;1.50;99.90;;;;;;4942103;28;19926;-73
2021/03/19 06:01:30;;;;;;;;;;;1.50;99.90;;;;;;4959895;28;20403;-73
2021/03/19 06:03:57;;;;;;;;;;;1.50;99.90;;;;;;4959409;28;19917;-72
2021/03/19 06:06:22;;;;;;;;;;;1.60;99.90;;;;;;4961836;28;20455;-73
2021/03/19 06:08:50;;;;;;;;;;;1.50;99.90;;;;;;4953765;28;20006;-72
2021/03/19 06:11:23;;;;;;;;;;;1.60;99.90;;;;;;4951519;28;19956;-73
2021/03/19 06:13:56;;;;;;;;;;;1.60;99.90;;;;;;4942075;28;19941;-73
2021/03/19 06:16:30;;;;;;;;;;;1.60;99.90;;;;;;4957935;28;19918;-73
2021/03/19 06:18:56;;;;;;;;;;;1.60;99.90;;;;;;4959518;28;20395;-73
2021/03/19 06:21:26;;;;;;;;;;;1.60;99.90;;;;;;4942077;28;19984;-73
2021/03/19 06:24:00;;;;;;;;;;;1.60;99.90;;;;;;4971672;28;19910;-73
2021/03/19 06:26:27;;;;;;;;;;;1.50;99.90;;;;;;4963610;28;20009;-73
2021/03/19 06:29:07;;;;;;;;;;;1.50;99.90;;;;;;4952086;28;19972;-73
2021/03/19 06:31:34;;;;;;;;;;;1.50;99.90;;;;;;4967769;28;19913;-73
2021/03/19 06:34:06;;;;;;;;;;;1.50;99.90;;;;;;4958211;28;19918;-73
2021/03/19 06:36:32;;;;;;;;;;;1.50;99.90;;;;;;4958080;28;20484;-75
2021/03/19 06:39:10;;;;;;;;;;;1.50;99.90;;;;;;4936232;28;19918;-75
2021/03/19 06:41:36;;;;;;;;;;;1.50;99.90;;;;;;4937407;28;19914;-71
2021/03/19 06:44:23;;;;;;;;;;;1.50;99.90;;;;;;4957978;28;19921;-73
2021/03/19 06:46:49;;;;;;;;;;;1.50;99.90;;;;;;4965134;28;19922;-73
2021/03/19 06:49:15;;;;;;;;;;;1.50;99.90;;;;;;4952417;28;19913;-73
2021/03/19 06:51:43;;;;;;;;;;;1.50;99.90;;;;;;4944236;28;20347;-73
2021/03/19 06:54:11;;;;;;;;;;;1.50;99.90;;;;;;4957090;28;19976;-73
2021/03/19 06:56:40;;;;;;;;;;;1.60;99.90;;;;;;4958948;28;19922;-73
2021/03/19 06:59:24;;;;;;;;;;;1.60;99.90;;;;;;4941064;28;19924;-73
2021/03/19 07:01:50;;;;;;;;;;;1.60;99.90;;;;;;4935527;28;19914;-74
2021/03/19 07:04:33;;;;;;;;;;;1.70;99.90;;;;;;4948169;28;19933;-72
2021/03/19 07:07:20;;;;;;;;;;;1.70;99.90;;;;;;4948168;28;19941;-73
2021/03/19 07:10:11;;;;;;;;;;;1.70;99.90;;;;;;4969136;28;20435;-72
2021/03/19 07:12:45;;;;;;;;;;;1.70;99.90;;;;;;4938600;28;19961;-72
2021/03/19 07:15:11;;;;;;;;;;;1.80;99.90;;;;;;4969235;28;19929;-73
2021/03/19 07:18:01;;;;;;;;;;;1.70;99.90;;;;;;4970176;28;19914;-74
2021/03/19 07:20:40;;;;;;;;;;;1.80;99.90;;;;;;4960880;28;19921;-73
2021/03/19 07:23:19;;;;;;;;;;;1.80;99.90;;;;;;4951842;28;19921;-73
2021/03/19 07:25:56;;;;;;;;;;;1.90;99.90;;;;;;4966286;28;20267;-73
2021/03/19 07:28:31;;;;;;;;;;;1.90;99.90;;;;;;4968021;28;20339;-74
2021/03/19 07:30:56;;;;;;;;;;;2.00;99.90;;;;;;4947549;28;19914;-73
2021/03/19 07:33:48;;;;;;;;;;;2.00;99.90;;;;;;4969594;28;20002;-74
2021/03/19 07:36:14;;;;;;;;;;;2.00;99.90;;;;;;4964660;28;20329;-73
2021/03/19 07:38:45;;;;;;;;;;;2.10;99.90;;;;;;4951773;28;19967;-74
2021/03/19 07:41:21;;;;;;;;;;;2.10;99.90;;;;;;4951406;28;19996;-73
2021/03/19 07:44:01;;;;;;;;;;;2.10;99.90;;;;;;4952514;28;20455;-74
2021/03/19 07:46:40;;;;;;;;;;;2.10;99.90;;;;;;4949704;28;19929;-74
2021/03/19 07:49:26;;;;;;;;;;;2.20;99.90;;;;;;4971335;28;19914;-74
2021/03/19 07:52:11;;;;;;;;;;;2.20;99.90;;;;;;4934215;28;20403;-74
2021/03/19 07:54:41;;;;;;;;;;;2.30;99.90;;;;;;4970428;28;19988;-74
2021/03/19 07:57:28;;;;;;;;;;;2.30;99.90;;;;;;4933846;28;20379;-74
2021/03/19 07:59:57;;;;;;;;;;;2.40;99.90;;;;;;4970439;28;19928;-74
2021/03/19 08:02:41;;;;;;;;;;;2.40;99.90;;;;;;4954238;28;20383;-74
2021/03/19 08:05:28;;;;;;;;;;;2.50;99.90;;;;;;4947809;28;20000;-74
2021/03/19 08:08:14;;;;;;;;;;;2.50;99.90;;;;;;4970107;28;19914;-74
2021/03/19 08:10:49;;;;;;;;;;;2.50;99.90;;;;;;4948255;28;19984;-74
2021/03/19 08:13:36;;;;;;;;;;;2.50;99.90;;;;;;4969577;28;19945;-74
2021/03/19 08:16:10;;;;;;;;;;;2.50;99.90;;;;;;4969725;28;19910;-74
2021/03/19 08:18:42;;;;;;;;;;;2.50;99.90;;;;;;4970086;28;19981;-74
2021/03/19 08:21:15;;;;;;;;;;;2.50;99.90;;;;;;4970807;28;20481;-69
2021/03/19 08:23:47;;;;;;;;;;;2.50;99.90;;;;;;4927653;28;21879;-69
2021/03/19 08:26:14;;;;;;;;;;;2.40;99.90;;;;;;4957055;28;19924;-69
2021/03/19 08:28:45;;;;;;;;;;;2.50;99.90;;;;;;4943665;28;20255;-69
2021/03/19 08:31:29;;;;;;;;;;;2.60;99.90;;;;;;4946361;28;19926;-69
2021/03/19 08:33:55;;;;;;;;;;;2.50;99.90;;;;;;4961004;28;19918;-68
2021/03/19 08:36:26;;;;;;;;;;;2.40;99.90;;;;;;4960939;28;19917;-69
2021/03/19 08:39:03;;;;;;;;;;;2.40;99.90;;;;;;4960181;28;19948;-69
2021/03/19 08:41:29;;;;;;;;;;;2.40;99.90;;;;;;4962245;28;20004;-69
2021/03/19 08:43:59;;;;;;;;;;;2.40;99.90;;;;;;4940131;28;19922;-69
2021/03/19 08:46:33;;;;;;;;;;;2.50;99.90;;;;;;4938776;28;19929;-70
2021/03/19 08:49:19;;;;;;;;;;;2.60;99.90;;;;;;4960995;28;19914;-69
2021/03/19 08:51:45;;;;;;;;;;;2.70;99.90;;;;;;4926059;28;19929;-69
2021/03/19 08:54:16;;;;;;;;;;;2.70;99.90;;;;;;4960789;28;19918;-68
2021/03/19 08:56:43;;;;;;;;;;;2.80;99.90;;;;;;4960721;28;19914;-69
2021/03/19 08:59:11;;;;;;;;;;;2.80;99.90;;;;;;4939060;28;20452;-69
2021/03/19 09:01:55;;;;;;;;;;;2.90;99.90;;;;;;4940687;28;20347;-69
2021/03/19 09:04:39;;;;;;;;;;;2.90;99.90;;;;;;4927766;28;19933;-69
2021/03/19 09:07:20;;;;;;;;;;;2.90;99.90;;;;;;4960871;28;19989;-69
2021/03/19 09:09:45;;;;;;;;;;;2.90;99.90;;;;;;4959889;28;19996;-69
2021/03/19 09:12:14;;;;;;;;;;;2.90;99.90;;;;;;4939435;28;20356;-69
2021/03/19 09:14:41;;;;;;;;;;;2.90;99.90;;;;;;4961180;28;20000;-69
2021/03/19 09:17:10;;;;;;;;;;;2.90;99.90;;;;;;4942847;28;19917;-69
2021/03/19 09:19:40;;;;;;;;;;;2.90;99.90;;;;;;4942160;28;19910;-69
2021/03/19 09:22:24;;;;;;;;;;;2.90;99.90;;;;;;4944460;28;19969;-69
2021/03/19 09:25:08;;;;;;;;;;;2.90;99.90;;;;;;4960736;28;19932;-69
2021/03/19 09:27:34;;;;;;;;;;;2.80;99.90;;;;;;4960720;28;19914;-69
2021/03/19 09:30:13;;;;;;;;;;;2.90;99.90;;;;;;4938636;28;20352;-69
2021/03/19 09:32:39;;;;;;;;;;;3.00;99.90;;;;;;4930837;28;19914;-69
2021/03/19 09:35:15;;;;;;;;;;;3.10;99.90;;;;;;4961055;28;19977;-69
2021/03/19 09:37:40;;;;;;;;;;;3.20;99.90;;;;;;4959543;28;19918;-69
2021/03/19 09:40:06;;;;;;;;;;;3.40;99.90;;;;;;4938604;28;19965;-68
2021/03/19 09:42:31;;;;;;;;;;;3.50;99.90;;;;;;4960162;28;19945;-69
2021/03/19 09:45:00;;;;;;;;;;;3.70;99.90;;;;;;4960081;28;19918;-69
2021/03/19 09:47:32;;;;;;;;;;;3.80;99.90;;;;;;4959952;28;19945;-68
2021/03/19 09:50:07;;;;;;;;;;;3.80;99.90;;;;;;4927005;28;19921;-69
2021/03/19 09:52:35;;;;;;;;;;;3.90;99.90;;;;;;4959954;28;20351;-68
2021/03/19 09:55:01;;;;;;;;;;;4.00;99.90;;;;;;4960328;28;20388;-68
2021/03/19 09:57:30;;;;;;;;;;;4.10;99.90;;;;;;4926645;28;19914;-69
2021/03/19 09:59:56;;;;;;;;;;;4.30;99.90;;;;;;4923416;28;19914;-69
2021/03/19 10:02:24;;;;;;;;;;;4.60;99.90;;;;;;4958929;28;19914;-69
2021/03/19 10:04:52;;;;;;;;;;;4.70;99.90;;;;;;4959200;28;19936;-68
2021/03/19 10:07:22;;;;;;;;;;;4.80;99.90;;;;;;4959782;28;19924;-69
2021/03/19 10:09:55;;;;;;;;;;;4.90;99.90;;;;;;4959718;28;19913;-69
2021/03/19 10:12:30;;;;;;;;;;;4.90;99.90;;;;;;4928952;28;19917;-69
2021/03/19 10:14:57;;;;;;;;;;;4.70;99.80;;;;;;4925797;28;19918;-69
2021/03/19 10:17:22;;;;;;;;;;;4.50;99.90;;;;;;4938487;28;20355;-69
2021/03/19 10:20:10;;;;;;;;;;;4.60;99.90;;;;;;4937647;28;19914;-68
2021/03/19 10:22:40;;;;;;;;;;;4.40;99.90;;;;;;4947191;28;20303;-68
2021/03/19 10:25:12;;;;;;;;;;;4.30;99.90;;;;;;4959400;28;19922;-68
2021/03/19 10:27:41;;;;;;;;;;;4.30;99.90;;;;;;4960062;28;19914;-70
2021/03/19 10:30:07;;;;;;;;;;;4.40;99.90;;;;;;4941044;28;19945;-69
2021/03/19 10:32:33;;;;;;;;;;;4.30;99.90;;;;;;4942092;28;20013;-69
2021/03/19 10:35:07;;;;;;;;;;;4.30;99.90;;;;;;4959349;28;19960;-68
2021/03/19 10:37:38;;;;;;;;;;;4.20;98.60;;;;;;4938062;28;20352;-69
2021/03/19 10:40:22;;;;;;;;;;;4.20;98.80;;;;;;4959798;28;20804;-68
2021/03/19 10:43:10;;;;;;;;;;;4.10;99.70;;;;;;4937425;28;19918;-69
2021/03/19 10:45:36;;;;;;;;;;;4.10;99.90;;;;;;4952365;28;19922;-68
2021/03/19 10:48:11;;;;;;;;;;;4.20;99.90;;;;;;4957852;28;19920;-69
2021/03/19 10:50:48;;;;;;;;;;;4.30;96.30;;;;;;4957307;28;20299;-69
2021/03/19 10:53:18;;;;;;;;;;;4.30;95.10;;;;;;4939720;28;19914;-69
2021/03/19 10:55:45;;;;;;;;;;;4.30;93.00;;;;;;4937665;28;20348;-68
2021/03/19 10:58:19;;;;;;;;;;;4.30;99.90;;;;;;4959126;28;20352;-68
2021/03/19 11:00:45;;;;;;;;;;;4.50;99.90;;;;;;4957961;28;20883;-68
2021/03/19 11:03:32;;;;;;;;;;;4.80;91.90;;;;;;4941798;28;19914;-68
2021/03/19 11:05:58;;;;;;;;;;;5.10;97.70;;;;;;4958648;28;19936;-69
2021/03/19 11:08:23;;;;;;;;;;;5.10;90.10;;;;;;4940808;28;20327;-69
2021/03/19 11:10:50;;;;;;;;;;;5.20;87.50;;;;;;4940671;28;19914;-69
2021/03/19 11:13:15;;;;;;;;;;;4.90;86.00;;;;;;4940108;28;19918;-69
2021/03/19 11:15:44;;;;;;;;;;;5.00;90.80;;;;;;4944539;28;20271;-69
2021/03/19 11:18:19;;;;;;;;;;;5.00;90.30;;;;;;4957949;28;19918;-69
2021/03/19 11:20:49;;;;;;;;;;;4.80;90.50;;;;;;4940008;28;20616;-69
2021/03/19 11:23:24;;;;;;;;;;;4.70;89.50;;;;;;4940681;28;19914;-69
2021/03/19 11:25:50;;;;;;;;;;;4.50;88.60;;;;;;4958373;28;20068;-68
2021/03/19 11:28:31;;;;;;;;;;;4.50;92.10;;;;;;4941419;28;19918;-69
2021/03/19 11:31:13;;;;;;;;;;;4.50;93.10;;;;;;4957034;28;19914;-69
2021/03/19 11:33:50;;;;;;;;;;;4.50;93.30;;;;;;4928146;28;20383;-69
2021/03/19 11:36:16;;;;;;;;;;;4.40;91.90;;;;;;4925078;28;20024;-69
2021/03/19 11:38:41;;;;;;;;;;;4.40;96.20;;;;;;4939940;28;20423;-69
2021/03/19 11:41:27;;;;;;;;;;;4.20;95.10;;;;;;4936955;28;19952;-69
2021/03/19 11:43:53;;;;;;;;;;;4.10;96.30;;;;;;4957187;28;19918;-69
2021/03/19 11:46:21;;;;;;;;;;;4.10;99.90;;;;;;4957461;28;19922;-69
2021/03/19 11:48:49;;;;;;;;;;;4.00;96.40;;;;;;4957721;28;20362;-69
2021/03/19 11:51:28;;;;;;;;;;;4.10;99.40;;;;;;4957590;28;19924;-68
2021/03/19 11:53:53;;;;;;;;;;;4.30;99.90;;;;;;4937512;28;19963;-69
2021/03/19 11:56:19;;;;;;;;;;;4.30;99.40;;;;;;4937390;28;20030;-69
2021/03/19 11:58:44;;;;;;;;;;;4.50;97.70;;;;;;4958153;28;19914;-68
2021/03/19 12:01:10;;;;;;;;;;;4.80;99.90;;;;;;4958675;28;19972;-69
2021/03/19 12:03:42;;;;;;;;;;;5.10;95.20;;;;;;4919976;28;19953;-68
2021/03/19 12:06:10;;;;;;;;;;;5.60;97.10;;;;;;4924519;28;19926;-69
2021/03/19 12:08:39;;;;;;;;;;;5.80;85.20;;;;;;4957584;28;19940;-69
2021/03/19 12:11:07;;;;;;;;;;;5.70;88.70;;;;;;4938147;28;19949;-68
2021/03/19 12:13:33;;;;;;;;;;;5.70;85.70;;;;;;4957891;28;19914;-68
2021/03/19 12:15:58;;;;;;;;;;;5.70;84.60;;;;;;4924882;28;19928;-69
2021/03/19 12:18:27;;;;;;;;;;;5.50;84.30;;;;;;4957459;28;19914;-69
2021/03/19 12:20:57;;;;;;;;;;;5.50;87.90;;;;;;4939918;28;19945;-68
2021/03/19 12:23:24;;;;;;;;;;;5.50;85.30;;;;;;4957673;28;19918;-69
2021/03/19 12:25:49;;;;;;;;;;;5.10;83.90;;;;;;4957693;28;20524;-69
2021/03/19 12:28:18;;;;;;;;;;;5.10;87.70;;;;;;4958147;28;19922;-68
2021/03/19 12:30:47;;;;;;;;;;;5.20;85.50;;;;;;4937074;28;19917;-68
2021/03/19 12:33:13;;;;;;;;;;;5.40;85.40;;;;;;4936450;28;19918;-68
2021/03/19 12:35:41;;;;;;;;;;;5.60;87.70;;;;;;4957261;28;19914;-69
2021/03/19 12:38:07;;;;;;;;;;;6.10;91.70;;;;;;4958248;28;19914;-69
2021/03/19 12:40:32;;;;;;;;;;;6.40;86.50;;;;;;4936276;28;19968;-69
2021/03/19 12:43:00;;;;;;;;;;;6.60;75.50;;;;;;4943830;28;20357;-68
2021/03/19 12:45:28;;;;;;;;;;;6.50;77.30;;;;;;4940330;28;19948;-69
2021/03/19 12:47:53;;;;;;;;;;;6.40;74.80;;;;;;4957439;28;19925;-69
2021/03/19 12:50:20;;;;;;;;;;;6.50;76.60;;;;;;4957573;28;20518;-69
2021/03/19 12:52:46;;;;;;;;;;;6.50;76.90;;;;;;4923937;28;19942;-69
2021/03/19 12:55:12;;;;;;;;;;;6.50;75.10;;;;;;4939905;28;19997;-69
2021/03/19 12:57:37;;;;;;;;;;;6.60;76.80;;;;;;4939295;28;19924;-69
2021/03/19 13:00:05;;;;;;;;;;;6.50;74.70;;;;;;4939384;28;19914;-69
2021/03/19 13:02:30;;;;;;;;;;;6.40;75.20;;;;;;4923770;28;20315;-68
2021/03/19 13:04:56;;;;;;;;;;;6.30;74.10;;;;;;4956251;28;19926;-69
2021/03/19 13:07:21;;;;;;;;;;;6.30;76.20;;;;;;4939523;28;19914;-69
2021/03/19 13:09:47;;;;;;;;;;;6.50;82.80;;;;;;4956810;28;19918;-69
2021/03/19 13:12:12;;;;;;;;;;;6.70;80.20;;;;;;4939295;28;20352;-69
2021/03/19 13:14:40;;;;;;;;;;;6.80;74.00;;;;;;4942831;28;19925;-69
2021/03/19 13:17:08;;;;;;;;;;;6.50;73.80;;;;;;4959289;28;19929;-68
2021/03/19 13:19:34;;;;;;;;;;;6.30;73.30;;;;;;4959964;28;19965;-69
2021/03/19 13:21:59;;;;;;;;;;;6.10;72.20;;;;;;4959989;28;20271;-69
2021/03/19 13:24:27;;;;;;;;;;;6.00;74.70;;;;;;4960243;28;19985;-68
2021/03/19 13:26:55;;;;;;;;;;;5.90;71.70;;;;;;4942495;28;19914;-69
2021/03/19 13:29:21;;;;;;;;;;;5.80;75.70;;;;;;4944965;28;20615;-69
2021/03/19 13:31:46;;;;;;;;;;;5.90;79.50;;;;;;4960017;28;19914;-69
2021/03/19 13:34:12;;;;;;;;;;;5.90;75.30;;;;;;4960210;28;19929;-68
2021/03/19 13:36:38;;;;;;;;;;;5.90;74.10;;;;;;4960085;28;20737;-68
2021/03/19 13:39:09;;;;;;;;;;;6.00;76.20;;;;;;4926512;28;19913;-68
2021/03/19 13:41:37;;;;;;;;;;;6.10;78.30;;;;;;4924466;28;19921;-69
2021/03/19 13:44:06;;;;;;;;;;;6.20;73.60;;;;;;4941020;28;19914;-69
2021/03/19 13:46:31;;;;;;;;;;;6.40;76.60;;;;;;4959294;28;19929;-70
2021/03/19 13:48:59;;;;;;;;;;;6.50;72.30;;;;;;4959506;28;19918;-69
2021/03/19 13:51:25;;;;;;;;;;;6.50;74.20;;;;;;4957932;28;19929;-69
2021/03/19 13:53:53;;;;;;;;;;;6.10;71.60;;;;;;4940359;28;19918;-69
2021/03/19 13:56:24;;;;;;;;;;;5.90;78.90;;;;;;4944761;28;19922;-69
2021/03/19 13:58:49;;;;;;;;;;;6.00;84.00;;;;;;4938770;28;19918;-68
2021/03/19 14:01:15;;;;;;;;;;;5.50;89.00;;;;;;4943155;28;19924;-69
2021/03/19 14:03:43;;;;;;;;;;;5.40;92.70;;;;;;4938335;28;19925;-68
2021/03/19 14:06:08;;;;;;;;;;;5.20;96.10;;;;;;4929610;28;19922;-69
2021/03/19 14:08:35;;;;;;;;;;;5.10;95.20;;;;;;4959982;28;19928;-68
2021/03/19 14:11:01;;;;;;;;;;;5.20;97.60;;;;;;4959600;28;20454;-68
2021/03/19 14:13:29;;;;;;;;;;;5.30;94.50;;;;;;4960275;28;19921;-69
2021/03/19 14:15:55;;;;;;;;;;;5.30;94.50;;;;;;4937975;28;19918;-68
2021/03/19 14:18:23;;;;;;;;;;;5.30;93.80;;;;;;4958254;28;19918;-69
2021/03/19 14:20:51;;;;;;;;;;;5.20;90.30;;;;;;4941628;28;19922;-69
2021/03/19 14:23:21;;;;;;;;;;;5.30;91.30;;;;;;4959134;28;19929;-69
2021/03/19 14:25:49;;;;;;;;;;;5.20;92.30;;;;;;4929971;28;20415;-69
2021/03/19 14:28:21;;;;;;;;;;;5.30;94.00;;;;;;4964462;28;19917;-70
2021/03/19 14:30:47;;;;;;;;;;;5.50;90.70;;;;;;4937474;28;20005;-70
2021/03/19 14:33:12;;;;;;;;;;;5.60;92.70;;;;;;4970525;28;20004;-71
2021/03/19 14:35:38;;;;;;;;;;;5.70;90.70;;;;;;4952431;28;20004;-69
2021/03/19 14:38:06;;;;;;;;;;;5.60;87.90;;;;;;4970081;28;20411;-69
2021/03/19 14:40:33;;;;;;;;;;;5.60;90.60;;;;;;4970494;28;19929;-69
2021/03/19 14:42:58;;;;;;;;;;;5.50;88.40;;;;;;4953698;28;20937;-69
2021/03/19 14:45:24;;;;;;;;;;;5.40;87.70;;;;;;4971168;28;20013;-69
2021/03/19 14:47:52;;;;;;;;;;;5.40;88.70;;;;;;4953070;28;20526;-68